MSC Vienna — A8CI9 — position and weather

sailwx.info

Track history (hours):
 
Tides and Currents Weather Stations Pressure Air Temp Water Temp Dewpoint Dewpoint Depression Visibility Wind Speed Wind Dir Waves Ship Positions

MSC Vienna

Last reported at 2014-Dec-16 12:32 UTC. Time now 2014-Dec-18 07:24 UTC.
Position S 19°56' E 057°27'.

Length 260.1 m; beam 32.2 m; draft 12 m.

Type: Ship. MMSI: 636090654.

Date/timePositionNaut miles runAvg speedWind from/ knotsBaromVisibWave heightAir tempDewpointWater temp
2014-Dec-16 12:32S 19°56' E 057°27'1212.3
2014-Dec-16 11:33S 20°08' E 057°29'0 0.3
2014-Dec-16 10:31S 20°08' E 057°29'0 0.0
2014-Dec-16 09:31S 20°08' E 057°29'0 0.0
2014-Dec-16 08:31S 20°08' E 057°29'0 0.0
2014-Dec-16 07:33S 20°08' E 057°29'0 0.0
2014-Dec-16 06:33S 20°08' E 057°29'0 0.0
2014-Dec-16 05:13S 20°08' E 057°29'0 0.0
2014-Dec-16 04:27S 20°08' E 057°29'0 0.0
2014-Dec-16 03:32S 20°08' E 057°29'0 0.0
2014-Dec-16 02:25S 20°08' E 057°29'0 0.0
2014-Dec-16 01:07S 20°08' E 057°29'0 0.0
2014-Dec-15 23:33S 20°08' E 057°29'0 0.0
2014-Dec-15 22:32S 20°08' E 057°29'0 0.0
2014-Dec-15 21:32S 20°08' E 057°29'0 0.0
2014-Dec-15 20:31S 20°08' E 057°29'0 0.0
2014-Dec-15 19:31S 20°08' E 057°29'0 0.0
2014-Dec-15 18:31S 20°08' E 057°29'1 0.9
2014-Dec-15 17:33S 20°08' E 057°29'1010.3
2014-Dec-15 16:33S 20°10' E 057°18'  
2014-Dec-08 22:19S 33°22' E 027°43'15620.0
2014-Dec-08 14:30S 31°32' E 029°54'1717.7
2014-Dec-08 13:33S 31°19' E 030°07'2216.9
2014-Dec-08 12:15S 31°02' E 030°23'6316.9
2014-Dec-08 08:31S 30°07' E 030°59'1717.5
2014-Dec-08 07:34S 29°51' E 031°07'5 5.3
2014-Dec-08 06:33S 29°53' E 031°01'0 0.0
2014-Dec-08 05:33S 29°53' E 031°01'0 0.0
2014-Dec-08 04:33S 29°53' E 031°01'0 0.0
2014-Dec-08 03:32S 29°53' E 031°01'0 0.0
2014-Dec-08 02:32S 29°53' E 031°01'0 0.0
2014-Dec-08 01:31S 29°53' E 031°01'0 0.0
2014-Dec-08 00:31S 29°53' E 031°01'0 0.0
2014-Dec-07 23:25S 29°53' E 031°01'0 0.0
2014-Dec-07 22:30S 29°53' E 031°01'0 0.0
2014-Dec-07 21:30S 29°53' E 031°01'0 0.0
2014-Dec-07 20:23S 29°53' E 031°01'0 0.0
2014-Dec-07 19:29S 29°53' E 031°01'0 0.0
2014-Dec-07 18:22S 29°53' E 031°01'0 0.0
2014-Dec-07 17:16S 29°53' E 031°01'0 0.0
2014-Dec-07 16:16S 29°53' E 031°01'0 0.0
2014-Dec-07 15:33S 29°53' E 031°01'0 0.0
2014-Dec-07 14:33S 29°53' E 031°01'0 0.0
2014-Dec-07 13:32S 29°53' E 031°01'0 0.0
2014-Dec-07 12:26S 29°53' E 031°01'0 0.0
2014-Dec-07 11:31S 29°53' E 031°01'0 0.0
2014-Dec-07 10:31S 29°53' E 031°01'0 0.0
2014-Dec-07 09:31S 29°53' E 031°01'0 0.0
2014-Dec-07 08:31S 29°53' E 031°01'0 0.0
2014-Dec-07 07:17S 29°53' E 031°01'1 1.4
2014-Dec-07 06:33S 29°53' E 031°03'4 3.7
2014-Dec-07 05:33S 29°50' E 031°06'5 4.8
2014-Dec-07 04:33S 29°46' E 031°08'1 1.3
2014-Dec-07 03:28S 29°45' E 031°09'0 0.0
2014-Dec-07 02:33S 29°45' E 031°09'0 0.0
2014-Dec-07 01:27S 29°45' E 031°09'0 0.0
2014-Dec-07 00:32S 29°45' E 031°09'0 0.0
2014-Dec-06 23:32S 29°45' E 031°09'0 0.0
2014-Dec-06 22:32S 29°45' E 031°09'0 0.0
2014-Dec-06 21:31S 29°45' E 031°09'0 0.0
2014-Dec-06 20:31S 29°45' E 031°09'0 0.0
2014-Dec-06 19:30S 29°45' E 031°09'0 0.0
2014-Dec-06 15:29S 29°45' E 031°09'  
Track history (hours):
 
Tides and Currents Weather Stations Pressure Air Temp Water Temp Dewpoint Dewpoint Depression Visibility Wind Speed Wind Dir Waves Ship Positions

MSC Vienna

Last reported at 2014-Dec-16 12:32 UTC. Time now 2014-Dec-18 07:24 UTC.
Position S 19°56' E 057°27'.

Length 260.1 m; beam 32.2 m; draft 12 m.

Type: Ship. MMSI: 636090654.

Date/timePositionNaut miles runAvg speedWind from/ knotsBaromVisibWave heightAir tempDewpointWater temp
2014-Dec-16 12:32S 19°56' E 057°27'1212.3
2014-Dec-16 11:33S 20°08' E 057°29'0 0.3
2014-Dec-16 10:31S 20°08' E 057°29'0 0.0
2014-Dec-16 09:31S 20°08' E 057°29'0 0.0
2014-Dec-16 08:31S 20°08' E 057°29'0 0.0
2014-Dec-16 07:33S 20°08' E 057°29'0 0.0
2014-Dec-16 06:33S 20°08' E 057°29'0 0.0
2014-Dec-16 05:13S 20°08' E 057°29'0 0.0
2014-Dec-16 04:27S 20°08' E 057°29'0 0.0
2014-Dec-16 03:32S 20°08' E 057°29'0 0.0
2014-Dec-16 02:25S 20°08' E 057°29'0 0.0
2014-Dec-16 01:07S 20°08' E 057°29'0 0.0
2014-Dec-15 23:33S 20°08' E 057°29'0 0.0
2014-Dec-15 22:32S 20°08' E 057°29'0 0.0
2014-Dec-15 21:32S 20°08' E 057°29'0 0.0
2014-Dec-15 20:31S 20°08' E 057°29'0 0.0
2014-Dec-15 19:31S 20°08' E 057°29'0 0.0
2014-Dec-15 18:31S 20°08' E 057°29'1 0.9
2014-Dec-15 17:33S 20°08' E 057°29'1010.3
2014-Dec-15 16:33S 20°10' E 057°18'  
2014-Dec-08 22:19S 33°22' E 027°43'15620.0
2014-Dec-08 14:30S 31°32' E 029°54'1717.7
2014-Dec-08 13:33S 31°19' E 030°07'2216.9
2014-Dec-08 12:15S 31°02' E 030°23'6316.9
2014-Dec-08 08:31S 30°07' E 030°59'1717.5
2014-Dec-08 07:34S 29°51' E 031°07'5 5.3
2014-Dec-08 06:33S 29°53' E 031°01'0 0.0
2014-Dec-08 05:33S 29°53' E 031°01'0 0.0
2014-Dec-08 04:33S 29°53' E 031°01'0 0.0
2014-Dec-08 03:32S 29°53' E 031°01'0 0.0
2014-Dec-08 02:32S 29°53' E 031°01'0 0.0
2014-Dec-08 01:31S 29°53' E 031°01'0 0.0
2014-Dec-08 00:31S 29°53' E 031°01'0 0.0
2014-Dec-07 23:25S 29°53' E 031°01'0 0.0
2014-Dec-07 22:30S 29°53' E 031°01'0 0.0
2014-Dec-07 21:30S 29°53' E 031°01'0 0.0
2014-Dec-07 20:23S 29°53' E 031°01'0 0.0
2014-Dec-07 19:29S 29°53' E 031°01'0 0.0
2014-Dec-07 18:22S 29°53' E 031°01'0 0.0
2014-Dec-07 17:16S 29°53' E 031°01'0 0.0
2014-Dec-07 16:16S 29°53' E 031°01'0 0.0
2014-Dec-07 15:33S 29°53' E 031°01'0 0.0
2014-Dec-07 14:33S 29°53' E 031°01'0 0.0
2014-Dec-07 13:32S 29°53' E 031°01'0 0.0
2014-Dec-07 12:26S 29°53' E 031°01'0 0.0
2014-Dec-07 11:31S 29°53' E 031°01'0 0.0
2014-Dec-07 10:31S 29°53' E 031°01'0 0.0
2014-Dec-07 09:31S 29°53' E 031°01'0 0.0
2014-Dec-07 08:31S 29°53' E 031°01'0 0.0
2014-Dec-07 07:17S 29°53' E 031°01'1 1.4
2014-Dec-07 06:33S 29°53' E 031°03'4 3.7
2014-Dec-07 05:33S 29°50' E 031°06'5 4.8
2014-Dec-07 04:33S 29°46' E 031°08'1 1.3
2014-Dec-07 03:28S 29°45' E 031°09'0 0.0
2014-Dec-07 02:33S 29°45' E 031°09'0 0.0
2014-Dec-07 01:27S 29°45' E 031°09'0 0.0
2014-Dec-07 00:32S 29°45' E 031°09'0 0.0
2014-Dec-06 23:32S 29°45' E 031°09'0 0.0
2014-Dec-06 22:32S 29°45' E 031°09'0 0.0
2014-Dec-06 21:31S 29°45' E 031°09'0 0.0
2014-Dec-06 20:31S 29°45' E 031°09'0 0.0
2014-Dec-06 19:30S 29°45' E 031°09'0 0.0
2014-Dec-06 15:29S 29°45' E 031°09'  

Dump ship's entire track history